createdAt,value
2018-04-17T00:00:37.423Z,94511.94
2018-04-17T00:03:05.096Z,94516.83
2018-04-17T00:05:33.788Z,94519.86
2018-04-17T00:08:01.461Z,94521.07
2018-04-17T00:10:29.130Z,94527.95
2018-04-17T00:12:56.777Z,94531.08
2018-04-17T00:15:24.403Z,94531.22
2018-04-17T00:17:52.028Z,94528.70
2018-04-17T00:20:19.680Z,94527.92
2018-04-17T00:22:47.314Z,94525.98
2018-04-17T00:25:14.890Z,94534.81
2018-04-17T00:27:42.532Z,94530.28
2018-04-17T00:30:10.129Z,94530.57
2018-04-17T00:32:37.773Z,94529.83
2018-04-17T00:35:05.390Z,94528.13
2018-04-17T00:37:33.024Z,94534.98
2018-04-17T00:40:00.742Z,94530.59
2018-04-17T00:42:28.343Z,94531.92
2018-04-17T00:44:56.192Z,94530.11
2018-04-17T00:47:23.888Z,94530.34
2018-04-17T00:49:51.489Z,94531.02
2018-04-17T00:52:19.178Z,94539.09
2018-04-17T00:54:46.878Z,94533.06
2018-04-17T00:57:14.489Z,94540.69
2018-04-17T00:59:42.120Z,94540.89
2018-04-17T01:02:09.809Z,94539.44
2018-04-17T01:04:37.440Z,94551.27
2018-04-17T01:07:05.090Z,94556.92
2018-04-17T01:09:32.700Z,94556.38
2018-04-17T01:12:00.341Z,94557.06
2018-04-17T01:14:27.971Z,94553.08
2018-04-17T01:16:55.635Z,94554.98
2018-04-17T01:19:23.296Z,94557.88
2018-04-17T01:21:50.885Z,94558.78
2018-04-17T01:24:18.584Z,94562.52
2018-04-17T01:26:46.184Z,94561.28
2018-04-17T01:29:13.786Z,94558.28
2018-04-17T01:31:41.448Z,94562.38
2018-04-17T01:34:09.033Z,94561.16
2018-04-17T01:36:36.734Z,94559.16
2018-04-17T01:39:04.479Z,94563.98
2018-04-17T01:41:32.121Z,94562.70
2018-04-17T01:43:59.746Z,94570.38
2018-04-17T01:46:27.425Z,94575.28
2018-04-17T01:48:55.061Z,94575.20
2018-04-17T01:51:22.635Z,94579.88
2018-04-17T01:53:50.292Z,94577.58
2018-04-17T01:56:17.971Z,94585.95
2018-04-17T01:58:45.691Z,94587.77
2018-04-17T02:01:13.311Z,94586.70
2018-04-17T02:03:41.451Z,94588.08
2018-04-17T02:06:09.071Z,94592.66
2018-04-17T02:08:36.664Z,94592.55
2018-04-17T02:11:04.339Z,94592.19
2018-04-17T02:13:32.418Z,94591.69
2018-04-17T02:15:59.999Z,94595.17
2018-04-17T02:18:27.662Z,94592.38
2018-04-17T02:20:55.231Z,94608.56
2018-04-17T02:23:22.847Z,94606.30
2018-04-17T02:25:50.636Z,94607.50
2018-04-17T02:28:18.255Z,94611.00
2018-04-17T02:30:46.261Z,94608.11
2018-04-17T02:33:13.895Z,94613.30
2018-04-17T02:35:41.479Z,94612.37
2018-04-17T02:38:09.135Z,94615.19
2018-04-17T02:40:37.226Z,94617.05
2018-04-17T02:43:04.827Z,94621.56
2018-04-17T02:45:33.221Z,94614.86
2018-04-17T02:48:00.847Z,94615.91
2018-04-17T02:50:28.538Z,94614.00
2018-04-17T02:52:56.214Z,94620.00
2018-04-17T02:55:23.812Z,94624.39
2018-04-17T02:57:51.472Z,94619.97
2018-04-17T03:00:19.125Z,94613.73
2018-04-17T03:02:46.764Z,94616.19
2018-04-17T03:05:14.449Z,94622.67
2018-04-17T03:07:42.050Z,94620.81
2018-04-17T03:10:09.638Z,94618.51
2018-04-17T03:12:37.275Z,94627.00
2018-04-17T03:15:04.925Z,94635.66
2018-04-17T03:17:32.610Z,94633.59
2018-04-17T03:20:00.263Z,94635.23
2018-04-17T03:22:27.888Z,94638.70
2018-04-17T03:24:55.484Z,94638.19
2018-04-17T03:27:23.204Z,94640.17
2018-04-17T03:29:50.822Z,94638.27
2018-04-17T03:32:18.514Z,94639.29
2018-04-17T03:34:46.136Z,94634.39
2018-04-17T03:37:13.852Z,94637.57
2018-04-17T03:39:41.496Z,94643.56
2018-04-17T03:42:09.169Z,94640.47
2018-04-17T03:44:36.860Z,94641.38
2018-04-17T03:47:04.460Z,94641.69
2018-04-17T03:49:32.095Z,94652.36
2018-04-17T03:51:59.841Z,94647.59
2018-04-17T03:54:27.483Z,94656.28
2018-04-17T03:56:55.155Z,94649.08
2018-04-17T03:59:22.793Z,94652.91
2018-04-17T04:01:50.385Z,94654.47
2018-04-17T04:04:18.010Z,94659.53
2018-04-17T04:06:45.656Z,94656.88
2018-04-17T04:09:13.328Z,94657.43
2018-04-17T04:11:40.988Z,94654.19
2018-04-17T04:14:08.588Z,94663.75
2018-04-17T04:16:47.985Z,94669.03
2018-04-17T04:19:27.292Z,94673.68
2018-04-17T04:22:06.677Z,94679.72
2018-04-17T04:24:45.861Z,94684.47
2018-04-17T04:27:13.452Z,94680.48
2018-04-17T04:29:42.214Z,94682.47
2018-04-17T04:32:09.791Z,94689.45
2018-04-17T04:34:38.319Z,94695.27
2018-04-17T04:37:05.982Z,94691.62
2018-04-17T04:39:33.586Z,94704.81
2018-04-17T04:42:01.233Z,94698.72
2018-04-17T04:44:28.879Z,94704.81
2018-04-17T04:46:56.510Z,94705.91
2018-04-17T04:49:24.173Z,94710.38
2018-04-17T04:51:51.791Z,94719.31
2018-04-17T04:54:19.440Z,94722.42
2018-04-17T04:56:47.081Z,94724.41
2018-04-17T04:59:14.719Z,94733.01
2018-04-17T05:01:42.372Z,94734.80
2018-04-17T05:04:10.070Z,94735.16
2018-04-17T05:06:37.845Z,94738.59
2018-04-17T05:09:06.266Z,94740.50
2018-04-17T05:11:33.937Z,94741.80
2018-04-17T05:14:01.636Z,94742.70
2018-04-17T05:16:29.342Z,94745.00
2018-04-17T05:18:57.009Z,94758.39
2018-04-17T05:21:24.678Z,94760.23
2018-04-17T05:23:52.346Z,94764.39
2018-04-17T05:26:20.028Z,94766.03
2018-04-17T05:28:47.642Z,94768.53
2018-04-17T05:31:15.274Z,94773.63
2018-04-17T05:33:42.912Z,94776.73
2018-04-17T05:36:10.620Z,94774.94
2018-04-17T05:38:38.207Z,94778.94
2018-04-17T05:41:05.857Z,94782.73
2018-04-17T05:43:33.454Z,94778.13
2018-04-17T05:46:01.091Z,94784.53
2018-04-17T05:48:28.715Z,94788.43
2018-04-17T05:50:56.378Z,94787.83
2018-04-17T05:53:24.046Z,94794.44
2018-04-17T05:55:51.688Z,94789.53
2018-04-17T05:58:19.416Z,94792.73
2018-04-17T06:00:47.067Z,94795.63
2018-04-17T06:03:14.831Z,94799.03
2018-04-17T06:05:42.540Z,94806.03
2018-04-17T06:08:10.243Z,94802.53
2018-04-17T06:10:37.946Z,94807.38
2018-04-17T06:13:05.593Z,94813.42
2018-04-17T06:15:33.255Z,94817.46
2018-04-17T06:18:00.881Z,94823.58
2018-04-17T06:20:28.596Z,94827.66
2018-04-17T06:22:56.248Z,94831.76
2018-04-17T06:25:23.856Z,94836.06
2018-04-17T06:27:51.501Z,94837.39
2018-04-17T06:30:19.148Z,94846.76
2018-04-17T06:32:46.757Z,94846.60
2018-04-17T06:35:14.420Z,94855.20
2018-04-17T06:37:42.024Z,94855.91
2018-04-17T06:40:09.643Z,94856.87
2018-04-17T06:42:37.341Z,94864.78
2018-04-17T06:45:04.997Z,94863.14
2018-04-17T06:47:32.603Z,94860.06
2018-04-17T06:50:00.375Z,94853.27
2018-04-17T06:52:28.692Z,94850.09
2018-04-17T06:54:56.374Z,94858.80
2018-04-17T06:57:24.102Z,94858.70
2018-04-17T06:59:51.793Z,94866.84
2018-04-17T07:02:19.420Z,94874.08
2018-04-17T07:04:47.049Z,94869.34
2018-04-17T07:07:14.692Z,94870.29
2018-04-17T07:09:42.347Z,94873.02
2018-04-17T07:12:10.046Z,94872.72
2018-04-17T07:14:37.727Z,94874.13
2018-04-17T07:17:05.427Z,94870.35
2018-04-17T07:19:33.059Z,94871.86
2018-04-17T07:22:00.706Z,94874.64
2018-04-17T07:24:28.396Z,94878.73
2018-04-17T07:26:56.130Z,94881.98
2018-04-17T07:29:23.909Z,94880.77
2018-04-17T07:31:51.584Z,94880.53
2018-04-17T07:34:19.292Z,94884.73
2018-04-17T07:36:46.929Z,94883.81
2018-04-17T07:39:15.265Z,94873.38
2018-04-17T07:41:42.987Z,94884.00
2018-04-17T07:44:11.780Z,94881.52
2018-04-17T07:46:39.477Z,94881.19
2018-04-17T07:49:07.144Z,94884.89
2018-04-17T07:51:34.734Z,94886.00
2018-04-17T07:54:02.418Z,94890.47
2018-04-17T07:56:30.106Z,94892.99
2018-04-17T07:58:57.708Z,94896.28
2018-04-17T08:01:25.407Z,94898.05
2018-04-17T08:03:53.029Z,94901.28
2018-04-17T08:06:21.659Z,94894.56
2018-04-17T08:08:49.321Z,94899.56
2018-04-17T08:11:17.001Z,94898.56
2018-04-17T08:13:44.625Z,94906.88
2018-04-17T08:16:12.244Z,94909.03
2018-04-17T08:18:39.924Z,94909.41
2018-04-17T08:21:07.573Z,94902.73
2018-04-17T08:23:35.216Z,94900.02
2018-04-17T08:26:02.893Z,94902.25
2018-04-17T08:28:31.590Z,94901.34
2018-04-17T08:30:59.363Z,94904.61
2018-04-17T08:33:26.952Z,94913.76
2018-04-17T08:35:54.770Z,94913.36
2018-04-17T08:38:22.412Z,94917.25
2018-04-17T08:40:50.063Z,94915.89
2018-04-17T08:43:17.699Z,94920.48
2018-04-17T08:45:45.317Z,94918.82
2018-04-17T08:48:12.977Z,94918.83
2018-04-17T08:50:40.622Z,94923.23
2018-04-17T08:53:08.260Z,94924.68
2018-04-17T08:55:36.469Z,94927.01
2018-04-17T08:58:04.162Z,94924.61
2018-04-17T09:00:31.831Z,94930.55
2018-04-17T09:02:59.556Z,94925.36
2018-04-17T09:05:27.262Z,94923.61
2018-04-17T09:07:54.917Z,94921.28
2018-04-17T09:10:22.757Z,94921.59
2018-04-17T09:12:51.689Z,94923.30
2018-04-17T09:15:20.170Z,94923.78
2018-04-17T09:17:47.879Z,94928.80
2018-04-17T09:20:15.529Z,94925.33
2018-04-17T09:22:43.372Z,94935.25
2018-04-17T09:25:11.008Z,94931.41
2018-04-17T09:27:38.748Z,94935.02
2018-04-17T09:30:06.691Z,94934.39
2018-04-17T09:32:34.279Z,94937.02
2018-04-17T09:35:01.903Z,94937.84
2018-04-17T09:37:29.697Z,94939.45
2018-04-17T09:39:58.030Z,94940.79
2018-04-17T09:42:25.677Z,94942.82
2018-04-17T09:44:53.278Z,94944.30
2018-04-17T09:47:21.012Z,94945.31
2018-04-17T09:49:48.630Z,94947.50
2018-04-17T09:52:16.281Z,94941.71
2018-04-17T09:54:44.072Z,94949.22
2018-04-17T09:57:11.732Z,94947.44
2018-04-17T09:59:39.598Z,94942.69
2018-04-17T10:02:08.062Z,94934.67
2018-04-17T10:04:35.782Z,94943.96
2018-04-17T10:07:03.411Z,94941.03
2018-04-17T10:09:31.057Z,94936.45
2018-04-17T10:11:59.610Z,94946.87
2018-04-17T10:14:27.257Z,94944.02
2018-04-17T10:16:54.873Z,94942.20
2018-04-17T10:19:22.549Z,94941.09
2018-04-17T10:21:50.202Z,94943.38
2018-04-17T10:24:17.875Z,94936.03
2018-04-17T10:26:45.606Z,94940.84
2018-04-17T10:29:13.215Z,94935.38
2018-04-17T10:31:40.923Z,94932.22
2018-04-17T10:34:08.539Z,94942.09
2018-04-17T10:36:36.207Z,94939.05
2018-04-17T10:39:03.934Z,94944.66
2018-04-17T10:41:31.580Z,94948.83
2018-04-17T10:43:59.185Z,94933.75
2018-04-17T10:46:26.836Z,94948.23
2018-04-17T10:48:54.445Z,94945.96
2018-04-17T10:51:22.106Z,94933.91
2018-04-17T10:53:49.797Z,94930.25
2018-04-17T10:56:17.403Z,94931.27
2018-04-17T10:58:45.089Z,94927.70
2018-04-17T11:01:12.711Z,94928.83
2018-04-17T11:03:40.391Z,94930.61
2018-04-17T11:06:08.022Z,94923.94
2018-04-17T11:08:36.867Z,94924.07
2018-04-17T11:11:04.496Z,94927.86
2018-04-17T11:13:32.295Z,94933.80
2018-04-17T11:15:59.916Z,94932.28
2018-04-17T11:18:27.675Z,94928.27
2018-04-17T11:20:55.342Z,94934.28
2018-04-17T11:23:22.983Z,94934.59
2018-04-17T11:25:50.617Z,94935.20
2018-04-17T11:28:18.305Z,94930.37
2018-04-17T11:30:46.010Z,94927.98
2018-04-17T11:33:13.667Z,94934.62
2018-04-17T11:35:41.319Z,94935.20
2018-04-17T11:38:08.934Z,94934.91
2018-04-17T11:40:36.630Z,94928.90
2018-04-17T11:43:04.390Z,94926.38
2018-04-17T11:45:31.986Z,94920.03
2018-04-17T11:47:59.654Z,94924.83
2018-04-17T11:50:27.294Z,94921.52
2018-04-17T11:52:55.015Z,94927.75
2018-04-17T11:55:22.642Z,94931.15
2018-04-17T11:57:50.303Z,94928.41
2018-04-17T12:00:17.962Z,94927.55
2018-04-17T12:02:45.582Z,94933.92
2018-04-17T12:05:14.238Z,94932.72
2018-04-17T12:07:41.880Z,94928.81
2018-04-17T12:10:09.605Z,94933.60
2018-04-17T12:12:38.460Z,94927.91
2018-04-17T12:15:06.096Z,94928.56
2018-04-17T12:17:33.796Z,94927.97
2018-04-17T12:20:01.448Z,94927.64
2018-04-17T12:22:29.126Z,94932.17
2018-04-17T12:24:56.799Z,94927.73
2018-04-17T12:27:24.469Z,94925.59
2018-04-17T12:29:52.116Z,94924.79
2018-04-17T12:32:19.716Z,94924.53
2018-04-17T12:34:47.389Z,94924.47
2018-04-17T12:37:14.979Z,94922.53
2018-04-17T12:39:42.646Z,94922.02
2018-04-17T12:42:10.274Z,94927.76
2018-04-17T12:44:37.999Z,94927.03
2018-04-17T12:47:05.618Z,94923.06
2018-04-17T12:49:33.235Z,94927.65
2018-04-17T12:52:00.999Z,94931.44
2018-04-17T12:54:28.616Z,94929.45
2018-04-17T12:56:56.332Z,94928.78
2018-04-17T12:59:23.948Z,94923.35
2018-04-17T13:01:51.611Z,94923.52
2018-04-17T13:04:19.257Z,94914.12
2018-04-17T13:06:46.927Z,94914.03
2018-04-17T13:09:14.597Z,94918.57
2018-04-17T13:11:42.207Z,94919.41
2018-04-17T13:14:09.938Z,94919.91
2018-04-17T13:16:37.571Z,94918.81
2018-04-17T13:19:05.267Z,94918.61
2018-04-17T13:21:32.869Z,94921.91
2018-04-17T13:24:00.576Z,94915.37
2018-04-17T13:26:28.228Z,94921.77
2018-04-17T13:28:55.896Z,94915.63
2018-04-17T13:31:23.518Z,94913.42
2018-04-17T13:33:51.174Z,94913.23
2018-04-17T13:36:18.888Z,94909.47
2018-04-17T13:38:46.572Z,94907.20
2018-04-17T13:41:14.281Z,94909.37
2018-04-17T13:43:42.013Z,94906.98
2018-04-17T13:46:09.639Z,94900.92
2018-04-17T13:48:37.352Z,94903.70
2018-04-17T13:51:05.089Z,94898.41
2018-04-17T13:53:32.756Z,94899.68
2018-04-17T13:56:00.874Z,94887.72
2018-04-17T13:58:31.508Z,94897.09
2018-04-17T14:00:59.167Z,94894.66
2018-04-17T14:03:26.845Z,94896.53
2018-04-17T14:05:54.517Z,94899.86
2018-04-17T14:08:22.203Z,94898.25
2018-04-17T14:10:49.779Z,94905.86
2018-04-17T14:13:17.534Z,94915.48
2018-04-17T14:15:45.231Z,94912.72
2018-04-17T14:18:12.856Z,94910.84
2018-04-17T14:20:40.547Z,94909.81
2018-04-17T14:23:08.252Z,94903.67
2018-04-17T14:25:36.029Z,94908.52
2018-04-17T14:28:04.466Z,94905.44
2018-04-17T14:30:32.872Z,94904.61
2018-04-17T14:33:00.533Z,94903.42
2018-04-17T14:35:28.186Z,94904.42
2018-04-17T14:37:55.986Z,94900.95
2018-04-17T14:40:23.726Z,94900.38
2018-04-17T14:42:51.415Z,94899.06
2018-04-17T14:45:19.114Z,94899.39
2018-04-17T14:47:46.789Z,94904.35
2018-04-17T14:50:14.504Z,94905.38
2018-04-17T14:52:42.231Z,94920.45
2018-04-17T14:55:09.901Z,94910.95
2018-04-17T14:57:37.666Z,94917.41
2018-04-17T15:00:06.053Z,94912.39
2018-04-17T15:02:33.701Z,94920.39
2018-04-17T15:05:03.678Z,94919.86
2018-04-17T15:07:31.591Z,94915.63
2018-04-17T15:09:59.216Z,94916.92
2018-04-17T15:12:26.958Z,94916.36
2018-04-17T15:14:54.700Z,94922.77
2018-04-17T15:17:22.315Z,94923.44
2018-04-17T15:19:50.049Z,94918.48
2018-04-17T15:22:17.782Z,94920.61
2018-04-17T15:24:45.486Z,94920.21
2018-04-17T15:27:13.174Z,94919.56
2018-04-17T15:29:40.892Z,94921.92
2018-04-17T15:32:08.657Z,94921.53
2018-04-17T15:34:36.388Z,94929.34
2018-04-17T15:37:04.156Z,94936.31
2018-04-17T15:39:31.968Z,94932.91
2018-04-17T15:42:01.667Z,94935.66
2018-04-17T15:44:29.534Z,94939.61
2018-04-17T15:46:58.765Z,94944.92
2018-04-17T15:49:26.628Z,94939.41
2018-04-17T15:51:54.433Z,94936.35
2018-04-17T15:54:22.614Z,94932.72
2018-04-17T15:56:50.254Z,94937.80
2018-04-17T15:59:17.999Z,94933.43
2018-04-17T16:01:45.715Z,94937.38
2018-04-17T16:04:13.343Z,94936.66
2018-04-17T16:06:41.014Z,94937.03
2018-04-17T16:09:08.759Z,94942.34
2018-04-17T16:11:36.408Z,94938.39
2018-04-17T16:14:04.240Z,94943.25
2018-04-17T16:16:35.001Z,94944.12
2018-04-17T16:19:02.665Z,94949.38
2018-04-17T16:21:31.064Z,94951.30
2018-04-17T16:23:58.799Z,94943.11
2018-04-17T16:26:26.521Z,94950.02
2018-04-17T16:28:54.928Z,94952.38
2018-04-17T16:31:22.887Z,94952.37
2018-04-17T16:33:51.457Z,94951.32
2018-04-17T16:36:20.361Z,94947.09
2018-04-17T16:38:48.212Z,94957.51
2018-04-17T16:41:16.695Z,94954.77
2018-04-17T16:43:46.388Z,94952.39
2018-04-17T16:46:14.264Z,94954.76
2018-04-17T16:48:41.979Z,94960.25
2018-04-17T16:51:10.473Z,94956.20
2018-04-17T16:53:38.836Z,94963.33
2018-04-17T16:56:06.507Z,94972.79
2018-04-17T16:58:34.206Z,94969.28
2018-04-17T17:01:01.950Z,94969.74
2018-04-17T17:03:29.576Z,94973.76
2018-04-17T17:05:57.310Z,94974.67
2018-04-17T17:08:24.975Z,94977.50
2018-04-17T17:10:53.771Z,94989.89
2018-04-17T17:13:21.507Z,94986.95
2018-04-17T17:15:49.155Z,94990.94
2018-04-17T17:18:16.897Z,94996.64
2018-04-17T17:20:44.628Z,94992.05
2018-04-17T17:23:12.720Z,94990.70
2018-04-17T17:25:40.560Z,94992.54
2018-04-17T17:28:08.331Z,94994.44
2018-04-17T17:30:36.664Z,95004.23
2018-04-17T17:33:05.693Z,95000.00
2018-04-17T17:35:33.530Z,95010.64
2018-04-17T17:38:01.207Z,95013.67
2018-04-17T17:40:28.914Z,95021.55
2018-04-17T17:42:57.797Z,95027.45
2018-04-17T17:45:26.638Z,95035.59
2018-04-17T17:47:54.302Z,95039.80
2018-04-17T17:50:22.118Z,95046.66
2018-04-17T17:52:49.860Z,95049.39
2018-04-17T17:55:17.596Z,95060.05
2018-04-17T17:57:45.315Z,95065.88
2018-04-17T18:00:13.056Z,95066.88
2018-04-17T18:02:40.881Z,95072.11
2018-04-17T18:05:08.903Z,95073.75
2018-04-17T18:07:36.645Z,95077.83
2018-04-17T18:10:04.525Z,95078.52
2018-04-17T18:12:33.454Z,95076.30
2018-04-17T18:15:01.173Z,95088.46
2018-04-17T18:17:28.990Z,95091.30
2018-04-17T18:19:57.907Z,95094.78
2018-04-17T18:22:25.731Z,95097.89
2018-04-17T18:24:53.465Z,95109.32
2018-04-17T18:27:21.263Z,95113.98
2018-04-17T18:29:49.077Z,95122.87
2018-04-17T18:32:16.899Z,95121.22
2018-04-17T18:34:44.582Z,95122.63
2018-04-17T18:37:12.418Z,95138.87
2018-04-17T18:39:40.204Z,95144.83
2018-04-17T18:42:07.911Z,95152.82
2018-04-17T18:44:35.621Z,95156.06
2018-04-17T18:47:03.362Z,95158.23
2018-04-17T18:49:31.502Z,95154.23
2018-04-17T18:51:59.255Z,95160.09
2018-04-17T18:54:26.991Z,95167.30
2018-04-17T18:56:54.873Z,95164.14
2018-04-17T18:59:24.036Z,95173.23
2018-04-17T19:01:52.781Z,95174.13
2018-04-17T19:04:20.479Z,95183.26
2018-04-17T19:06:48.243Z,95188.69
2018-04-17T19:09:15.943Z,95187.47
2018-04-17T19:11:45.839Z,95198.59
2018-04-17T19:14:13.699Z,95202.42
2018-04-17T19:16:41.405Z,95203.40
2018-04-17T19:19:10.875Z,95202.20
2018-04-17T19:21:38.616Z,95212.44
2018-04-17T19:24:07.947Z,95217.48
2018-04-17T19:26:35.719Z,95223.22
2018-04-17T19:29:03.516Z,95226.91
2018-04-17T19:31:31.293Z,95231.89
2018-04-17T19:33:59.868Z,95231.92
2018-04-17T19:36:27.508Z,95239.50
2018-04-17T19:38:55.579Z,95241.77
2018-04-17T19:41:23.289Z,95243.20
2018-04-17T19:43:51.996Z,95251.19
2018-04-17T19:46:20.863Z,95251.33
2018-04-17T19:48:48.653Z,95258.88
2018-04-17T19:51:16.362Z,95257.55
2018-04-17T19:53:44.047Z,95256.73
2018-04-17T19:56:11.857Z,95261.91
2018-04-17T19:58:39.693Z,95256.45
2018-04-17T20:01:07.670Z,95269.89
2018-04-17T20:03:36.989Z,95275.28
2018-04-17T20:06:04.851Z,95276.42
2018-04-17T20:08:33.451Z,95277.47
2018-04-17T20:11:01.329Z,95280.58
2018-04-17T20:13:29.153Z,95282.32
2018-04-17T20:15:56.885Z,95287.90
2018-04-17T20:18:24.748Z,95278.77
2018-04-17T20:20:52.441Z,95280.88
2018-04-17T20:23:20.621Z,95284.83
2018-04-17T20:25:48.305Z,95284.64
2018-04-17T20:28:15.940Z,95293.75
2018-04-17T20:30:43.808Z,95285.63
2018-04-17T20:33:11.433Z,95291.69
2018-04-17T20:35:39.066Z,95290.79
2018-04-17T20:38:06.743Z,95289.47
2018-04-17T20:40:34.419Z,95294.88
2018-04-17T20:43:02.160Z,95294.48
2018-04-17T20:45:31.129Z,95302.33
2018-04-17T20:47:58.779Z,95298.08
2018-04-17T20:50:26.490Z,95300.11
2018-04-17T20:52:54.294Z,95301.20
2018-04-17T20:55:23.227Z,95304.42
2018-04-17T20:57:51.847Z,95301.92
2018-04-17T21:00:19.700Z,95305.43
2018-04-17T21:02:47.581Z,95308.47
2018-04-17T21:05:18.100Z,95316.87
2018-04-17T21:07:46.722Z,95317.88
2018-04-17T21:10:14.722Z,95323.48
2018-04-17T21:12:42.489Z,95322.48
2018-04-17T21:15:10.140Z,95320.44
2018-04-17T21:17:37.846Z,95317.77
2018-04-17T21:20:05.451Z,95313.45
2018-04-17T21:22:33.130Z,95319.08
2018-04-17T21:25:00.874Z,95330.52
2018-04-17T21:27:28.614Z,95335.39
2018-04-17T21:29:56.286Z,95332.92
2018-04-17T21:32:23.947Z,95330.46
2018-04-17T21:34:51.653Z,95341.17
2018-04-17T21:37:19.307Z,95348.87
2018-04-17T21:39:47.380Z,95354.76
2018-04-17T21:42:15.067Z,95356.16
2018-04-17T21:44:42.680Z,95359.17
2018-04-17T21:47:10.326Z,95354.59
2018-04-17T21:49:37.992Z,95364.83
2018-04-17T21:52:05.669Z,95364.64
2018-04-17T21:54:33.352Z,95369.23
2018-04-17T21:57:00.976Z,95368.33
2018-04-17T21:59:28.589Z,95380.27
2018-04-17T22:01:56.238Z,95378.08
2018-04-17T22:04:23.927Z,95373.87
2018-04-17T22:06:51.641Z,95385.98
2018-04-17T22:09:19.303Z,95387.39
2018-04-17T22:11:46.975Z,95394.83
2018-04-17T22:14:14.628Z,95391.61
2018-04-17T22:16:43.220Z,95388.90
2018-04-17T22:19:10.845Z,95386.20
2018-04-17T22:21:38.558Z,95396.27
2018-04-17T22:24:06.219Z,95401.08
2018-04-17T22:26:33.852Z,95402.53
2018-04-17T22:29:01.445Z,95397.82
2018-04-17T22:31:29.195Z,95385.97
2018-04-17T22:33:56.803Z,95392.97
2018-04-17T22:36:24.452Z,95397.47
2018-04-17T22:38:52.155Z,95406.45
2018-04-17T22:41:19.837Z,95407.55
2018-04-17T22:43:47.551Z,95416.56
2018-04-17T22:46:15.221Z,95414.25
2018-04-17T22:48:42.892Z,95417.73
2018-04-17T22:51:10.621Z,95417.90
2018-04-17T22:53:38.331Z,95410.17
2018-04-17T22:56:06.007Z,95418.56
2018-04-17T22:58:33.692Z,95422.91
2018-04-17T23:01:01.352Z,95429.93
2018-04-17T23:03:29.011Z,95435.47
2018-04-17T23:05:56.638Z,95430.89
2018-04-17T23:08:24.239Z,95428.95
2018-04-17T23:10:51.924Z,95429.78
2018-04-17T23:13:19.575Z,95432.84
2018-04-17T23:15:47.211Z,95434.25
2018-04-17T23:18:14.865Z,95437.50
2018-04-17T23:20:42.481Z,95437.38
2018-04-17T23:23:10.122Z,95437.02
2018-04-17T23:25:37.729Z,95436.98
2018-04-17T23:28:05.368Z,95442.77
2018-04-17T23:30:32.951Z,95440.60
2018-04-17T23:33:00.589Z,95447.27
2018-04-17T23:35:28.240Z,95440.33
2018-04-17T23:37:55.813Z,95441.32
2018-04-17T23:40:23.485Z,95449.52
2018-04-17T23:42:51.065Z,95449.58
2018-04-17T23:45:18.701Z,95448.30
2018-04-17T23:47:46.343Z,95450.78
2018-04-17T23:50:13.952Z,95452.45
2018-04-17T23:52:41.552Z,95457.98
2018-04-17T23:55:09.251Z,95455.02
2018-04-17T23:57:36.930Z,95460.80
